Time;durP1;ratioP1;P1;durP2;ratioP2;P2;SDS_P1;SDS_P2;PMS_P1;PMS_P2;Temp;Humidity;BMP_temperature;BMP_pressure;BME280_temperature;BME280_humidity;BME280_pressure;Samples;Min_cycle;Max_cycle;Signal;HPM_P1;HPM_P2
2023/07/11 00:02:16;;;;;;;9.70;4.32;;;19.70;99.90;;;;;;4992174;28;20271;-78
2023/07/11 00:04:42;;;;;;;6.35;4.43;;;19.70;99.90;;;;;;5010035;28;20268;-79
2023/07/11 00:07:09;;;;;;;6.82;4.05;;;19.70;99.90;;;;;;5006716;28;20205;-79
2023/07/11 00:09:36;;;;;;;6.15;4.03;;;19.70;99.90;;;;;;4993862;28;20571;-78
2023/07/11 00:12:03;;;;;;;6.82;4.18;;;19.70;99.90;;;;;;5008433;28;20211;-78
2023/07/11 00:14:30;;;;;;;5.45;3.92;;;19.70;99.90;;;;;;5005837;28;20207;-78
2023/07/11 00:16:57;;;;;;;5.70;4.38;;;19.70;99.90;;;;;;5006354;28;20211;-78
2023/07/11 00:19:24;;;;;;;8.38;4.25;;;19.70;99.90;;;;;;5002407;28;20223;-79
2023/07/11 00:21:51;;;;;;;5.07;3.95;;;19.70;99.90;;;;;;4994027;28;20195;-78
2023/07/11 00:24:20;;;;;;;6.28;4.10;;;19.50;99.90;;;;;;5009020;28;20710;-77
2023/07/11 00:26:47;;;;;;;8.82;4.10;;;19.40;99.90;;;;;;5002857;28;20215;-77
2023/07/11 00:29:21;;;;;;;6.43;4.10;;;19.70;99.90;;;;;;4988238;28;20222;-79
2023/07/11 00:31:48;;;;;;;5.80;4.10;;;19.70;99.90;;;;;;4989913;28;20202;-78
2023/07/11 00:34:15;;;;;;;6.25;4.20;;;19.70;99.90;;;;;;5000961;28;20215;-77
2023/07/11 00:36:42;;;;;;;6.18;4.15;;;19.70;99.90;;;;;;4993422;28;20571;-79
2023/07/11 00:39:12;;;;;;;7.97;4.45;;;19.70;99.90;;;;;;4990951;28;20241;-78
2023/07/11 00:41:39;;;;;;;8.43;4.50;;;19.70;99.90;;;;;;5010382;28;20257;-78
2023/07/11 00:44:15;;;;;;;8.27;4.53;;;19.60;99.90;;;;;;4985940;28;20651;-77
2023/07/11 00:46:43;;;;;;;7.93;4.68;;;19.60;99.90;;;;;;5006900;28;20232;-78
2023/07/11 00:49:13;;;;;;;8.30;5.15;;;19.70;99.90;;;;;;5004671;28;20622;-79
2023/07/11 00:51:45;;;;;;;7.75;5.32;;;19.70;99.90;;;;;;4985393;28;20671;-78
2023/07/11 00:54:16;;;;;;;6.07;5.03;;;19.70;99.90;;;;;;4978211;28;20218;-77
2023/07/11 00:56:45;;;;;;;7.95;4.40;;;19.70;99.90;;;;;;5003690;28;20282;-77
2023/07/11 00:59:18;;;;;;;8.25;4.45;;;19.70;99.90;;;;;;5006891;28;20231;-79
2023/07/11 01:01:54;;;;;;;7.70;4.57;;;19.50;99.90;;;;;;5007612;28;20215;-77
2023/07/11 01:04:21;;;;;;;9.98;5.10;;;19.70;99.90;;;;;;5006718;28;20213;-78
2023/07/11 01:06:48;;;;;;;8.27;4.68;;;19.70;99.90;;;;;;5003167;28;20210;-78
2023/07/11 01:09:15;;;;;;;6.85;4.82;;;19.50;99.90;;;;;;5009274;28;20211;-78
2023/07/11 01:12:02;;;;;;;7.78;5.22;;;19.70;99.90;;;;;;5005772;28;20213;-81
2023/07/11 01:14:30;;;;;;;7.53;4.60;;;19.60;99.90;;;;;;5002099;28;20246;-78
2023/07/11 01:16:57;;;;;;;7.40;5.05;;;19.60;99.90;;;;;;4983434;28;20200;-78
2023/07/11 01:19:24;;;;;;;6.93;4.88;;;19.60;99.90;;;;;;5005570;28;20260;-78
2023/07/11 01:21:51;;;;;;;8.63;5.50;;;19.60;99.90;;;;;;5005709;28;20203;-79
2023/07/11 01:24:18;;;;;;;9.60;5.65;;;19.60;99.90;;;;;;4986526;28;20645;-78
2023/07/11 01:26:45;;;;;;;9.68;5.30;;;19.50;99.90;;;;;;5008269;28;20265;-79
2023/07/11 01:29:12;;;;;;;6.22;4.40;;;19.50;99.90;;;;;;5006299;28;20222;-79
2023/07/11 01:31:42;;;;;;;7.38;5.47;;;19.50;99.90;;;;;;5002438;28;20222;-78
2023/07/11 01:34:09;;;;;;;10.00;5.82;;;19.50;99.90;;;;;;4983873;28;20681;-78
2023/07/11 01:36:36;;;;;;;9.93;6.30;;;19.50;99.90;;;;;;4995887;28;20207;-78
2023/07/11 01:39:06;;;;;;;8.90;5.85;;;19.50;99.90;;;;;;5002959;28;20215;-77
2023/07/11 01:41:33;;;;;;;7.03;5.35;;;19.40;99.90;;;;;;5002294;28;20239;-80
2023/07/11 01:44:01;;;;;;;7.82;6.43;;;19.50;99.90;;;;;;5007831;28;20721;-78
2023/07/11 01:46:28;;;;;;;11.88;5.95;;;19.50;99.90;;;;;;5010163;28;20231;-78
2023/07/11 01:48:55;;;;;;;9.88;6.15;;;19.50;99.90;;;;;;5001222;28;20269;-78
2023/07/11 01:51:22;;;;;;;7.03;5.78;;;19.50;99.90;;;;;;5007413;28;20210;-77
2023/07/11 01:53:49;;;;;;;8.68;6.13;;;19.50;99.90;;;;;;5003995;28;20202;-77
2023/07/11 01:56:17;;;;;;;13.27;6.65;;;19.50;99.90;;;;;;4989622;28;20694;-79
2023/07/11 01:58:44;;;;;;;8.40;5.78;;;19.50;99.90;;;;;;5006133;28;20210;-77
2023/07/11 02:01:11;;;;;;;7.70;6.32;;;19.50;99.90;;;;;;5007519;28;20249;-77
2023/07/11 02:03:38;;;;;;;9.32;6.18;;;19.50;99.90;;;;;;5006708;28;20206;-78
2023/07/11 02:06:05;;;;;;;12.98;7.10;;;19.40;99.90;;;;;;5002557;28;20628;-77
2023/07/11 02:08:33;;;;;;;11.45;6.47;;;19.40;99.90;;;;;;5003261;28;20297;-76
2023/07/11 02:11:00;;;;;;;9.45;6.25;;;19.40;99.90;;;;;;5002710;28;20210;-77
2023/07/11 02:13:27;;;;;;;10.10;7.25;;;19.40;99.90;;;;;;5006509;28;20213;-77
2023/07/11 02:15:54;;;;;;;8.27;6.80;;;19.30;99.90;;;;;;5003469;28;20218;-79
2023/07/11 02:18:21;;;;;;;10.52;6.78;;;19.40;99.90;;;;;;5007824;28;20257;-78
2023/07/11 02:20:48;;;;;;;13.55;6.35;;;19.40;99.90;;;;;;4991788;28;20226;-79
2023/07/11 02:23:15;;;;;;;10.73;6.78;;;19.40;99.90;;;;;;5004927;28;20210;-78
2023/07/11 02:25:43;;;;;;;11.10;6.65;;;19.30;99.90;;;;;;5007079;28;20673;-78
2023/07/11 02:28:10;;;;;;;8.73;6.25;;;19.20;99.90;;;;;;5003816;28;20210;-77
2023/07/11 02:30:37;;;;;;;9.15;6.07;;;19.30;99.90;;;;;;5007265;28;20227;-77
2023/07/11 02:33:04;;;;;;;9.75;6.22;;;19.30;99.90;;;;;;5000758;28;20662;-79
2023/07/11 02:35:31;;;;;;;7.43;6.07;;;19.30;99.90;;;;;;4989196;28;20266;-78
2023/07/11 02:37:58;;;;;;;7.90;6.35;;;19.30;99.90;;;;;;5008424;28;20217;-79
2023/07/11 02:40:25;;;;;;;9.88;6.28;;;19.30;99.90;;;;;;5001869;28;20233;-77
2023/07/11 02:42:52;;;;;;;7.78;6.20;;;19.20;99.90;;;;;;4986501;28;20335;-78
2023/07/11 02:45:19;;;;;;;9.57;5.78;;;19.30;99.90;;;;;;4987933;28;20218;-77
2023/07/11 02:47:46;;;;;;;11.45;6.85;;;19.10;99.90;;;;;;5006208;28;20290;-79
2023/07/11 02:50:12;;;;;;;10.60;6.40;;;19.30;99.90;;;;;;5001473;28;20287;-77
2023/07/11 02:52:39;;;;;;;9.32;6.20;;;19.20;99.90;;;;;;4991775;28;20202;-78
2023/07/11 02:55:07;;;;;;;9.73;6.90;;;19.20;99.90;;;;;;5006632;28;20214;-76
2023/07/11 02:57:33;;;;;;;9.82;6.90;;;19.10;99.90;;;;;;5000346;28;20210;-76
2023/07/11 03:00:00;;;;;;;9.13;6.75;;;19.10;99.90;;;;;;5006756;28;20663;-77
2023/07/11 03:02:28;;;;;;;7.63;6.07;;;19.10;99.90;;;;;;5005415;28;20230;-76
2023/07/11 03:04:54;;;;;;;8.13;6.43;;;19.10;99.90;;;;;;5001429;28;20221;-77
2023/07/11 03:07:21;;;;;;;8.57;6.93;;;18.90;99.90;;;;;;5005987;28;20320;-77
2023/07/11 03:09:48;;;;;;;10.65;6.60;;;18.90;99.90;;;;;;5002432;28;20206;-76
2023/07/11 03:12:15;;;;;;;10.80;6.88;;;18.90;99.90;;;;;;5005293;28;20332;-76
2023/07/11 03:14:42;;;;;;;9.20;6.95;;;18.90;99.90;;;;;;5001595;28;20277;-77
2023/07/11 03:17:09;;;;;;;8.38;6.70;;;18.80;99.90;;;;;;5006779;28;20253;-78
2023/07/11 03:19:35;;;;;;;12.80;7.05;;;18.90;99.90;;;;;;5001314;28;20215;-78
2023/07/11 03:22:02;;;;;;;11.38;7.68;;;18.70;99.90;;;;;;4994173;28;20217;-78
2023/07/11 03:24:29;;;;;;;10.93;7.47;;;18.70;99.90;;;;;;5003496;28;20253;-78
2023/07/11 03:26:56;;;;;;;11.02;7.72;;;18.70;99.90;;;;;;5004155;28;20641;-78
2023/07/11 03:29:23;;;;;;;10.43;7.55;;;18.70;99.90;;;;;;4990272;28;20219;-77
2023/07/11 03:31:50;;;;;;;9.38;7.30;;;18.70;99.90;;;;;;5002553;28;20683;-78
2023/07/11 03:34:16;;;;;;;11.27;7.78;;;18.60;99.90;;;;;;5003940;28;20218;-76
2023/07/11 03:36:43;;;;;;;15.25;8.32;;;18.70;99.90;;;;;;5006787;28;20683;-77
2023/07/11 03:39:10;;;;;;;11.70;8.47;;;18.70;99.90;;;;;;5005830;28;20219;-79
2023/07/11 03:41:37;;;;;;;13.18;8.13;;;18.60;99.90;;;;;;5002757;28;20243;-77
2023/07/11 03:44:04;;;;;;;15.90;8.82;;;18.60;99.90;;;;;;5005738;28;20210;-77
2023/07/11 03:46:30;;;;;;;13.75;9.00;;;18.60;99.90;;;;;;4989459;28;20226;-78
2023/07/11 03:49:00;;;;;;;9.82;8.07;;;18.60;99.90;;;;;;5001911;28;20242;-76
2023/07/11 03:51:27;;;;;;;9.05;7.70;;;18.60;99.90;;;;;;5006310;28;20322;-78
2023/07/11 03:53:54;;;;;;;13.52;8.57;;;18.60;99.90;;;;;;5004454;28;20643;-77
2023/07/11 03:56:21;;;;;;;16.65;8.65;;;18.60;99.90;;;;;;5010797;28;20237;-78
2023/07/11 03:58:48;;;;;;;10.30;8.30;;;18.60;99.90;;;;;;5009668;28;20210;-76
2023/07/11 04:01:15;;;;;;;8.77;7.60;;;18.70;99.90;;;;;;5007547;28;20238;-76
2023/07/11 04:03:43;;;;;;;10.38;7.68;;;18.70;99.90;;;;;;5011248;28;20202;-77
2023/07/11 04:06:11;;;;;;;8.45;7.18;;;18.70;99.90;;;;;;5007727;28;20272;-77
2023/07/11 04:08:39;;;;;;;13.82;8.20;;;18.80;99.90;;;;;;5003970;28;20199;-77
2023/07/11 04:11:06;;;;;;;11.80;8.23;;;18.80;99.90;;;;;;5008796;28;20229;-76
2023/07/11 04:13:32;;;;;;;8.68;7.75;;;18.90;99.90;;;;;;4993732;28;20210;-77
2023/07/11 04:16:00;;;;;;;11.05;8.63;;;18.80;99.90;;;;;;5003032;28;20773;-78
2023/07/11 04:18:26;;;;;;;10.98;7.78;;;18.90;99.90;;;;;;5006818;28;20207;-79
2023/07/11 04:20:53;;;;;;;11.45;8.02;;;18.90;99.90;;;;;;5010074;28;20233;-78
2023/07/11 04:23:20;;;;;;;9.07;6.93;;;18.90;99.90;;;;;;5004748;28;20548;-79
2023/07/11 04:25:47;;;;;;;9.75;8.20;;;19.00;99.90;;;;;;5011775;28;20571;-77
2023/07/11 04:28:14;;;;;;;11.45;7.88;;;19.10;99.90;;;;;;5005744;28;20305;-77
2023/07/11 04:30:41;;;;;;;9.85;7.93;;;19.10;99.90;;;;;;4991871;28;20780;-76
2023/07/11 04:33:08;;;;;;;9.27;6.90;;;19.10;99.90;;;;;;4983540;28;20208;-77
2023/07/11 04:35:35;;;;;;;12.38;7.90;;;19.10;99.90;;;;;;5006101;28;20214;-78
2023/07/11 04:38:02;;;;;;;10.43;6.85;;;19.30;99.90;;;;;;5008574;28;20309;-78
2023/07/11 04:40:28;;;;;;;11.48;7.30;;;19.30;99.90;;;;;;5000605;28;20237;-78
2023/07/11 04:42:58;;;;;;;9.95;7.43;;;19.40;99.90;;;;;;5007632;28;20762;-77
2023/07/11 04:45:25;;;;;;;9.13;6.72;;;19.50;99.90;;;;;;5009111;28;20210;-78
2023/07/11 04:47:53;;;;;;;10.13;7.25;;;19.50;99.90;;;;;;5010429;28;20215;-77
2023/07/11 04:50:20;;;;;;;9.35;6.10;;;19.60;99.90;;;;;;4994282;28;20224;-76
2023/07/11 04:52:46;;;;;;;8.50;6.43;;;19.70;99.90;;;;;;5012379;28;20210;-78
2023/07/11 04:55:13;;;;;;;9.90;6.03;;;19.60;99.90;;;;;;5012793;28;20214;-77
2023/07/11 04:57:40;;;;;;;7.50;5.63;;;19.70;99.90;;;;;;5003813;28;20213;-76
2023/07/11 05:00:09;;;;;;;8.18;5.55;;;19.70;99.90;;;;;;5007507;28;20231;-78
2023/07/11 05:02:36;;;;;;;8.55;5.22;;;19.70;99.90;;;;;;5003577;28;20569;-79
2023/07/11 05:05:03;;;;;;;8.80;5.68;;;19.80;99.90;;;;;;4989367;28;20277;-79
2023/07/11 05:07:30;;;;;;;9.20;5.43;;;19.80;99.90;;;;;;5008891;28;20510;-77
2023/07/11 05:09:56;;;;;;;8.35;5.10;;;19.90;99.90;;;;;;5019806;28;20719;-76
2023/07/11 05:12:25;;;;;;;7.05;5.38;;;20.00;99.90;;;;;;5021049;28;20222;-76
2023/07/11 05:14:52;;;;;;;7.18;5.13;;;19.90;99.90;;;;;;5010002;28;20218;-77
2023/07/11 05:17:20;;;;;;;7.93;4.30;;;20.00;99.90;;;;;;5004656;28;20199;-78
2023/07/11 05:19:47;;;;;;;7.43;4.68;;;20.10;99.90;;;;;;4993815;28;20230;-77
2023/07/11 05:22:13;;;;;;;5.65;4.35;;;20.20;99.90;;;;;;5002570;28;20238;-77
2023/07/11 05:24:40;;;;;;;6.93;5.55;;;20.20;99.90;;;;;;4995624;28;20654;-79
2023/07/11 05:27:08;;;;;;;6.78;4.85;;;20.30;99.90;;;;;;5004173;28;20674;-79
2023/07/11 05:29:38;;;;;;;7.47;4.55;;;20.40;99.90;;;;;;4999270;28;20230;-79
2023/07/11 05:32:05;;;;;;;9.80;4.40;;;20.50;99.90;;;;;;4990717;28;20211;-78
2023/07/11 05:34:32;;;;;;;5.43;3.55;;;20.60;99.90;;;;;;4996930;28;20208;-79
2023/07/11 05:37:02;;;;;;;4.43;3.47;;;21.00;99.90;;;;;;4990616;28;20296;-81
2023/07/11 05:39:30;;;;;;;6.13;3.42;;;;;;;;;;5001544;28;20226;-78
2023/07/11 05:41:57;;;;;;;6.63;3.25;;;22.70;99.90;;;;;;5000448;28;20246;-77
2023/07/11 05:44:25;;;;;;;5.00;3.10;;;;;;;;;;5002622;28;20202;-80
2023/07/11 05:46:52;;;;;;;6.30;3.75;;;24.80;99.90;;;;;;5000758;28;20227;-78
2023/07/11 05:49:21;;;;;;;5.75;2.83;;;25.30;99.90;;;;;;4992089;28;20210;-81
2023/07/11 05:51:49;;;;;;;6.43;2.90;;;25.70;99.90;;;;;;4987798;28;20210;-78
2023/07/11 05:54:16;;;;;;;4.18;2.78;;;26.30;99.90;;;;;;5003154;28;20747;-79
2023/07/11 05:56:43;;;;;;;6.82;2.65;;;26.70;99.90;;;;;;4999729;28;20680;-76
2023/07/11 05:59:09;;;;;;;5.00;2.90;;;27.10;99.90;;;;;;5003841;28;20218;-79
2023/07/11 06:01:36;;;;;;;4.80;2.72;;;27.80;99.90;;;;;;5000606;28;20223;-80
2023/07/11 06:04:10;;;;;;;4.88;2.20;;;28.50;99.90;;;;;;5000194;28;20222;-82
2023/07/11 06:06:42;;;;;;;4.15;2.50;;;29.10;99.90;;;;;;5003779;28;20648;-79
2023/07/11 06:09:13;;;;;;;3.08;2.45;;;29.60;99.90;;;;;;5002810;28;20242;-77
2023/07/11 06:11:40;;;;;;;6.22;2.63;;;30.00;99.90;;;;;;5003001;28;20211;-78
2023/07/11 06:14:09;;;;;;;2.95;2.25;;;30.70;99.90;;;;;;5004543;28;20234;-80
2023/07/11 06:16:38;;;;;;;5.38;2.40;;;31.30;99.90;;;;;;4987994;28;20269;-78
2023/07/11 06:19:05;;;;;;;3.30;2.22;;;31.80;99.90;;;;;;5000459;28;20207;-79
2023/07/11 06:21:32;;;;;;;7.38;2.20;;;32.40;99.90;;;;;;5006401;28;20236;-79
2023/07/11 06:23:59;;;;;;;2.92;1.88;;;32.80;99.90;;;;;;4995061;28;20217;-78
2023/07/11 06:26:26;;;;;;;5.50;2.40;;;33.10;99.90;;;;;;4991636;28;20206;-79
2023/07/11 06:28:54;;;;;;;3.25;1.85;;;33.10;99.90;;;;;;4980881;28;20257;-81
2023/07/11 06:31:22;;;;;;;2.45;1.95;;;33.30;99.90;;;;;;4987170;28;20253;-80
2023/07/11 06:33:50;;;;;;;3.33;2.40;;;33.60;99.30;;;;;;4992894;28;20713;-77
2023/07/11 06:36:17;;;;;;;2.78;2.17;;;34.10;98.40;;;;;;4999688;28;20194;-78
2023/07/11 06:38:44;;;;;;;2.90;2.08;;;34.40;96.80;;;;;;4999079;28;20207;-77
2023/07/11 06:41:11;;;;;;;3.95;1.83;;;34.50;95.80;;;;;;5008243;28;20217;-78
2023/07/11 06:43:38;;;;;;;4.10;1.65;;;34.60;95.00;;;;;;5023374;28;20198;-79
2023/07/11 06:46:05;;;;;;;3.83;2.00;;;34.70;94.30;;;;;;5024966;28;20225;-76
2023/07/11 06:48:32;;;;;;;3.60;2.13;;;34.70;93.20;;;;;;5020960;28;20209;-77
2023/07/11 06:51:01;;;;;;;4.93;2.00;;;34.40;93.20;;;;;;5021007;28;20783;-78
2023/07/11 06:53:31;;;;;;;4.47;1.77;;;34.60;93.00;;;;;;5010958;28;20238;-77
2023/07/11 06:55:58;;;;;;;4.65;2.13;;;34.80;92.50;;;;;;5014711;28;20213;-77
2023/07/11 06:58:27;;;;;;;2.28;1.70;;;34.90;92.30;;;;;;5019092;28;20209;-77
2023/07/11 07:00:55;;;;;;;5.25;2.03;;;35.10;92.00;;;;;;5013775;28;20244;-77
2023/07/11 07:03:22;;;;;;;2.72;1.88;;;35.20;91.30;;;;;;5021197;28;20674;-79
2023/07/11 07:06:00;;;;;;;4.75;2.00;;;35.20;90.90;;;;;;5015944;28;20201;-77
2023/07/11 07:08:27;;;;;;;5.57;2.40;;;35.30;90.40;;;;;;5014375;28;20202;-78
2023/07/11 07:10:55;;;;;;;3.00;1.60;;;35.50;89.90;;;;;;5005220;28;20209;-76
2023/07/11 07:13:23;;;;;;;4.07;1.70;;;35.70;88.70;;;;;;4999265;28;20252;-77
2023/07/11 07:15:53;;;;;;;4.00;1.63;;;35.70;87.20;;;;;;5025596;28;20217;-77
2023/07/11 07:18:21;;;;;;;2.97;1.58;;;35.70;86.20;;;;;;5014317;28;20222;-77
2023/07/11 07:20:49;;;;;;;3.55;1.70;;;35.60;85.70;;;;;;5001074;28;20261;-77
2023/07/11 07:23:20;;;;;;;2.97;1.60;;;35.60;85.40;;;;;;5014456;28;20631;-77
2023/07/11 07:25:55;;;;;;;3.90;2.40;;;35.50;84.60;;;;;;5009403;28;20214;-76
2023/07/11 07:28:22;;;;;;;5.18;1.85;;;35.50;83.30;;;;;;5023260;28;20216;-76
2023/07/11 07:30:54;;;;;;;3.28;1.70;;;35.40;83.60;;;;;;5022813;28;20723;-77
2023/07/11 07:33:25;;;;;;;4.10;1.70;;;35.30;83.30;;;;;;5012479;28;20213;-78
2023/07/11 07:36:06;;;;;;;3.88;1.80;;;35.40;83.00;;;;;;5021381;28;20205;-77
2023/07/11 07:38:33;;;;;;;4.63;1.70;;;35.40;82.80;;;;;;5010242;28;20201;-77
2023/07/11 07:41:02;;;;;;;2.85;1.50;;;35.50;82.40;;;;;;5021894;28;20245;-76
2023/07/11 07:43:31;;;;;;;6.63;1.50;;;35.60;81.80;;;;;;5011827;28;20236;-78
2023/07/11 07:46:00;;;;;;;4.13;1.77;;;35.90;81.10;;;;;;4999610;28;20215;-77
2023/07/11 07:48:27;;;;;;;3.47;1.60;;;35.90;79.60;;;;;;5013492;28;20616;-77
2023/07/11 07:51:07;;;;;;;4.45;1.90;;;35.80;79.70;;;;;;5010708;28;20219;-77
2023/07/11 07:53:34;;;;;;;3.10;1.65;;;35.80;77.90;;;;;;4995255;28;20244;-82
2023/07/11 07:56:06;;;;;;;3.70;1.95;;;35.60;78.60;;;;;;4988102;28;20210;-82
2023/07/11 07:58:33;;;;;;;4.60;1.88;;;35.40;78.70;;;;;;5008836;28;20214;-81
2023/07/11 08:01:04;;;;;;;3.28;1.50;;;35.40;78.90;;;;;;5004650;28;20222;-81
2023/07/11 08:03:32;;;;;;;4.13;2.13;;;35.60;78.80;;;;;;4995063;28;20229;-82
2023/07/11 08:05:59;;;;;;;4.22;1.60;;;35.40;78.20;;;;;;4993985;28;20198;-81
2023/07/11 08:08:42;;;;;;;3.50;1.58;;;35.30;77.50;;;;;;4989140;28;20247;-78
2023/07/11 08:11:09;;;;;;;3.20;1.65;;;34.90;76.80;;;;;;5010466;28;20206;-80
2023/07/11 08:13:36;;;;;;;2.40;1.60;;;34.90;77.20;;;;;;5010232;28;20221;-80
2023/07/11 08:16:24;;;;;;;4.07;2.20;;;34.80;76.90;;;;;;5002868;28;20264;-79
2023/07/11 08:18:53;;;;;;;4.50;1.80;;;35.10;76.70;;;;;;5004984;28;20264;-79
2023/07/11 08:21:21;;;;;;;2.80;1.70;;;35.20;76.80;;;;;;5005889;28;20233;-79
2023/07/11 08:23:48;;;;;;;3.25;1.90;;;35.30;76.60;;;;;;5005459;28;20202;-80
2023/07/11 08:26:15;;;;;;;2.88;1.70;;;35.40;76.30;;;;;;5009448;28;20210;-79
2023/07/11 08:28:42;;;;;;;2.78;2.00;;;35.30;75.60;;;;;;5007431;28;20210;-79
2023/07/11 08:31:09;;;;;;;3.42;1.60;;;35.20;76.20;;;;;;5009025;28;20332;-81
2023/07/11 08:33:36;;;;;;;5.53;2.13;;;35.30;76.00;;;;;;4989696;28;20211;-79
2023/07/11 08:36:04;;;;;;;3.25;1.98;;;35.40;76.10;;;;;;5009891;28;20202;-79
2023/07/11 08:38:31;;;;;;;3.60;1.60;;;35.50;75.20;;;;;;4990282;28;20214;-74
2023/07/11 08:41:07;;;;;;;4.43;1.65;;;35.10;74.70;;;;;;5003264;28;20712;-75
2023/07/11 08:43:34;;;;;;;2.10;1.35;;;34.90;74.50;;;;;;5003994;28;20210;-76
2023/07/11 08:46:06;;;;;;;4.18;1.83;;;34.90;75.10;;;;;;5008135;28;20746;-76
2023/07/11 08:48:49;;;;;;;4.40;1.80;;;35.00;74.70;;;;;;5009696;28;20276;-77
2023/07/11 08:51:37;;;;;;;3.70;1.70;;;35.00;73.70;;;;;;5009548;28;20521;-76
2023/07/11 08:54:35;;;;;;;3.40;1.60;;;34.80;73.50;;;;;;5005972;28;20206;-77
2023/07/11 08:57:02;;;;;;;4.75;1.77;;;34.50;74.10;;;;;;4989491;28;20351;-77
2023/07/11 08:59:48;;;;;;;4.43;1.70;;;34.30;75.10;;;;;;4992302;28;20604;-79
2023/07/11 09:02:28;;;;;;;4.47;1.83;;;34.20;75.80;;;;;;5006621;28;20236;-80
2023/07/11 09:04:56;;;;;;;9.80;2.22;;;34.30;76.80;;;;;;4990507;28;20202;-78
2023/07/11 09:07:42;;;;;;;3.95;1.77;;;34.20;76.40;;;;;;4982973;28;20210;-80
2023/07/11 09:10:20;;;;;;;3.47;1.48;;;34.00;74.70;;;;;;5000432;28;20214;-76
2023/07/11 09:13:05;;;;;;;5.30;1.98;;;33.60;76.70;;;;;;4987546;28;20202;-76
2023/07/11 09:15:59;;;;;;;2.97;1.25;;;33.40;78.00;;;;;;5000672;28;20225;-78
2023/07/11 09:18:46;;;;;;;3.75;1.77;;;33.40;76.20;;;;;;5004242;28;20371;-77
2023/07/11 09:21:35;;;;;;;4.05;1.73;;;33.50;77.30;;;;;;5008680;28;20326;-77
2023/07/11 09:24:44;;;;;;;2.30;1.60;;;33.30;76.90;;;;;;4983325;28;20214;-77
2023/07/11 09:27:15;;;;;;;3.25;1.73;;;33.00;77.20;;;;;;4998203;28;20301;-75
2023/07/11 09:29:46;;;;;;;3.28;1.52;;;32.50;79.40;;;;;;5000007;28;20690;-76
2023/07/11 09:32:15;;;;;;;2.90;1.73;;;32.70;79.30;;;;;;4999616;28;20195;-76
2023/07/11 09:34:48;;;;;;;2.55;1.88;;;32.50;79.30;;;;;;5003902;28;20336;-77
2023/07/11 09:37:43;;;;;;;3.17;1.45;;;32.50;80.60;;;;;;5004871;28;20207;-77
2023/07/11 09:40:45;;;;;;;3.55;1.63;;;32.60;80.20;;;;;;5004820;28;20660;-78
2023/07/11 09:43:12;;;;;;;3.95;2.00;;;32.50;79.20;;;;;;4971595;28;20320;-76
2023/07/11 09:45:44;;;;;;;3.08;1.58;;;32.50;79.60;;;;;;5026572;28;20760;-76
2023/07/11 09:48:44;;;;;;;3.55;1.67;;;32.60;79.20;;;;;;5024471;28;20212;-77
2023/07/11 09:51:36;;;;;;;3.60;1.83;;;32.70;78.40;;;;;;4985353;28;20567;-76
2023/07/11 09:54:20;;;;;;;4.93;1.67;;;32.30;77.20;;;;;;5024689;28;20206;-77
2023/07/11 09:56:48;;;;;;;2.58;1.73;;;32.20;76.20;;;;;;5025178;28;20204;-77
2023/07/11 09:59:17;;;;;;;4.68;1.90;;;32.10;77.30;;;;;;5007270;28;20248;-78
2023/07/11 10:01:44;;;;;;;5.00;2.47;;;32.10;76.80;;;;;;5026985;28;20233;-78
2023/07/11 10:04:23;;;;;;;4.30;1.77;;;32.00;76.40;;;;;;5006030;28;20210;-78
2023/07/11 10:06:57;;;;;;;3.55;1.80;;;31.80;77.30;;;;;;5019823;28;20216;-79
2023/07/11 10:09:27;;;;;;;5.45;1.92;;;31.70;77.70;;;;;;5023023;28;20561;-78
2023/07/11 10:11:55;;;;;;;4.03;1.73;;;31.60;78.40;;;;;;5005670;28;20293;-75
2023/07/11 10:14:32;;;;;;;2.92;2.00;;;31.70;78.30;;;;;;5011508;28;20934;-78
2023/07/11 10:17:14;;;;;;;4.95;1.90;;;31.70;77.70;;;;;;5007399;28;20214;-77
2023/07/11 10:20:06;;;;;;;4.30;1.50;;;31.60;77.10;;;;;;4997316;28;20226;-80
2023/07/11 10:22:53;;;;;;;2.70;1.70;;;31.70;77.40;;;;;;5009588;28;20237;-77
2023/07/11 10:25:28;;;;;;;5.05;1.90;;;31.80;77.90;;;;;;5022692;28;20563;-77
2023/07/11 10:28:03;;;;;;;2.60;1.65;;;32.10;77.60;;;;;;5021796;28;20213;-79
2023/07/11 10:30:36;;;;;;;3.10;1.40;;;32.20;77.40;;;;;;4998535;28;20599;-78
2023/07/11 10:33:17;;;;;;;4.60;1.90;;;32.30;77.40;;;;;;5017400;28;20210;-78
2023/07/11 10:36:03;;;;;;;4.85;1.90;;;32.50;77.50;;;;;;5023428;28;20219;-78
2023/07/11 10:39:00;;;;;;;3.65;1.90;;;32.60;76.40;;;;;;5023910;28;20205;-78
2023/07/11 10:41:36;;;;;;;4.90;2.30;;;32.40;76.80;;;;;;5018836;28;20257;-78
2023/07/11 10:44:11;;;;;;;2.67;1.98;;;32.10;77.80;;;;;;4986433;28;20211;-77
2023/07/11 10:46:42;;;;;;;2.58;1.73;;;32.00;78.30;;;;;;4990893;28;20557;-78
2023/07/11 10:49:37;;;;;;;4.70;2.00;;;31.70;79.70;;;;;;4980960;28;20632;-78
2023/07/11 10:52:19;;;;;;;5.10;2.05;;;31.90;79.50;;;;;;4989532;28;20356;-78
2023/07/11 10:55:05;;;;;;;2.95;1.98;;;31.90;79.30;;;;;;4989111;28;20213;-76
2023/07/11 10:57:52;;;;;;;3.25;1.73;;;32.00;79.10;;;;;;4991029;28;20199;-78
2023/07/11 11:00:57;;;;;;;3.88;2.22;;;32.10;76.90;;;;;;4988693;28;20666;-77
2023/07/11 11:03:41;;;;;;;3.78;1.80;;;31.80;75.50;;;;;;4992667;28;20694;-77
2023/07/11 11:06:49;;;;;;;3.50;1.83;;;31.50;76.70;;;;;;5008341;28;20664;-78
2023/07/11 11:09:35;;;;;;;6.20;2.10;;;31.40;77.40;;;;;;4994194;28;20353;-80
2023/07/11 11:12:17;;;;;;;5.90;2.03;;;31.30;78.60;;;;;;4991592;28;20206;-79
2023/07/11 11:14:55;;;;;;;4.07;2.30;;;31.00;78.60;;;;;;5038372;23;20249;-90
2023/07/11 11:17:46;;;;;;;3.42;2.00;;;30.90;80.40;;;;;;5027145;28;20285;-91
2023/07/11 11:20:14;;;;;;;3.78;1.90;;;30.70;81.40;;;;;;5021199;28;20214;-92
2023/07/11 11:23:20;;;;;;;5.78;1.98;;;30.60;81.60;;;;;;5006200;28;20245;-91
2023/07/11 11:26:05;;;;;;;4.30;1.85;;;30.70;81.80;;;;;;5009751;28;20210;-92
2023/07/11 11:28:43;;;;;;;4.22;2.33;;;30.60;81.70;;;;;;5006334;28;20195;-91
2023/07/11 11:31:29;;;;;;;5.40;2.30;;;30.70;81.90;;;;;;5014026;28;20249;-92
2023/07/11 11:34:09;;;;;;;4.38;1.90;;;31.00;82.10;;;;;;5018857;28;20198;-92
2023/07/11 11:39:57;;;;;;;3.72;1.60;;;31.20;81.30;;;;;;5022711;28;20214;-90
2023/07/11 11:42:34;;;;;;;4.15;1.90;;;31.30;81.80;;;;;;5010086;28;20240;-90
2023/07/11 11:45:04;;;;;;;3.63;2.00;;;31.40;82.50;;;;;;5008175;28;20218;-90
2023/07/11 11:47:36;;;;;;;5.05;2.17;;;31.50;82.60;;;;;;5022575;28;20204;-90
2023/07/11 11:50:22;;;;;;;4.00;2.08;;;31.70;82.30;;;;;;5015930;28;20199;-90
2023/07/11 11:53:22;;;;;;;4.68;2.45;;;31.80;82.00;;;;;;5032432;28;20206;-90
2023/07/11 11:55:57;;;;;;;4.80;2.35;;;31.90;82.70;;;;;;5024314;28;20315;-90
2023/07/11 11:59:00;;;;;;;4.03;2.15;;;31.70;82.20;;;;;;5017921;28;20670;-87
2023/07/11 12:01:42;;;;;;;3.65;1.98;;;31.70;82.60;;;;;;5018349;28;20238;-87
2023/07/11 12:05:17;;;;;;;3.35;2.10;;;31.60;83.80;;;;;;5018771;28;20322;-90
2023/07/11 12:08:27;;;;;;;3.55;2.00;;;31.50;81.70;;;;;;4983536;28;20250;-93
2023/07/11 12:11:07;;;;;;;2.30;1.60;;;31.40;83.90;;;;;;4977518;28;20215;-90
2023/07/11 12:13:37;;;;;;;3.85;2.20;;;31.50;83.50;;;;;;4988437;28;20243;-84
2023/07/11 12:16:30;;;;;;;2.85;1.77;;;31.40;83.60;;;;;;5009936;28;20269;-92
2023/07/11 12:19:41;;;;;;;3.13;1.92;;;31.40;83.50;;;;;;5012392;28;20222;-91
2023/07/11 12:22:13;;;;;;;5.20;1.90;;;31.50;84.30;;;;;;4996837;28;20871;-89
2023/07/11 12:24:42;;;;;;;2.60;1.70;;;31.50;83.60;;;;;;5013128;28;20212;-86
2023/07/11 12:27:16;;;;;;;2.22;1.63;;;31.50;83.30;;;;;;5011148;28;20599;-86
2023/07/11 12:29:52;;;;;;;4.38;2.28;;;31.50;83.20;;;;;;5011823;28;20222;-89
2023/07/11 12:32:31;;;;;;;4.13;1.95;;;31.40;83.80;;;;;;5020157;28;20238;-87
2023/07/11 12:35:08;;;;;;;4.20;2.15;;;31.30;84.90;;;;;;5009857;28;20219;-87
2023/07/11 12:38:00;;;;;;;2.92;1.98;;;31.20;84.90;;;;;;5015883;28;20214;-90
2023/07/11 12:40:37;;;;;;;2.80;1.95;;;31.20;84.90;;;;;;5007397;28;20726;-86
2023/07/11 12:43:30;;;;;;;4.40;1.90;;;31.10;85.30;;;;;;5010463;28;20222;-91
2023/07/11 12:46:34;;;;;;;6.13;2.08;;;31.10;85.70;;;;;;5020477;28;20242;-90
2023/07/11 12:49:26;;;;;;;3.67;1.85;;;31.20;85.60;;;;;;5009111;28;20237;-89
2023/07/11 12:52:05;;;;;;;4.63;2.63;;;31.40;85.60;;;;;;5000819;28;20214;-91
2023/07/11 12:54:38;;;;;;;4.82;2.17;;;31.50;85.40;;;;;;5016241;28;20553;-87
2023/07/11 12:57:15;;;;;;;5.93;1.95;;;31.70;85.60;;;;;;5015173;28;20234;-87
2023/07/11 12:59:45;;;;;;;5.00;2.47;;;31.70;85.00;;;;;;5017859;28;20211;-88
2023/07/11 13:02:31;;;;;;;5.47;1.98;;;31.80;85.50;;;;;;5011070;28;20234;-87
2023/07/11 13:05:13;;;;;;;3.22;2.10;;;31.80;85.70;;;;;;5016068;28;20214;-88
2023/07/11 13:07:44;;;;;;;5.80;2.20;;;31.70;85.80;;;;;;5016000;28;20573;-87
2023/07/11 13:10:23;;;;;;;5.53;2.00;;;31.70;85.70;;;;;;5009942;28;20212;-88
2023/07/11 13:12:52;;;;;;;6.75;2.67;;;31.80;86.80;;;;;;5010782;28;20214;-88
2023/07/11 13:15:22;;;;;;;5.53;2.20;;;31.70;86.20;;;;;;5022648;28;20324;-89
2023/07/11 13:17:53;;;;;;;4.45;2.03;;;31.60;86.20;;;;;;5024011;28;20261;-87